createdAt,value
2017-10-29T00:00:55.376Z,1002.76
2017-10-29T00:01:55.351Z,1002.73
2017-10-29T00:02:55.345Z,1002.62
2017-10-29T00:03:55.338Z,1002.66
2017-10-29T00:04:55.334Z,1002.64
2017-10-29T00:05:55.334Z,1002.63
2017-10-29T00:06:55.325Z,1002.54
2017-10-29T00:07:55.322Z,1002.55
2017-10-29T00:08:55.314Z,1002.49
2017-10-29T00:09:55.311Z,1002.49
2017-10-29T00:10:55.306Z,1002.45
2017-10-29T00:11:55.303Z,1002.46
2017-10-29T00:12:55.295Z,1002.49
2017-10-29T00:13:55.298Z,1002.44
2017-10-29T00:14:55.287Z,1002.39
2017-10-29T00:15:55.307Z,1002.33
2017-10-29T00:16:55.275Z,1002.32
2017-10-29T00:17:55.316Z,1002.39
2017-10-29T00:18:55.264Z,1002.32
2017-10-29T00:19:55.357Z,1002.23
2017-10-29T00:20:55.256Z,1002.29
2017-10-29T00:21:55.250Z,1002.24
2017-10-29T00:22:55.257Z,1002.20
2017-10-29T00:23:55.244Z,1002.24
2017-10-29T00:24:55.234Z,1002.26
2017-10-29T00:25:55.231Z,1002.25
2017-10-29T00:26:55.237Z,1002.26
2017-10-29T00:27:55.223Z,1002.19
2017-10-29T00:28:55.214Z,1002.18
2017-10-29T00:29:55.209Z,1002.14
2017-10-29T00:30:55.208Z,1002.18
2017-10-29T00:31:55.204Z,1002.06
2017-10-29T00:32:55.197Z,1002.15
2017-10-29T00:33:55.191Z,1002.07
2017-10-29T00:34:55.207Z,1002.02
2017-10-29T00:35:55.186Z,1002.13
2017-10-29T00:36:55.178Z,1002.10
2017-10-29T00:37:55.174Z,1002.15
2017-10-29T00:38:55.165Z,1002.06
2017-10-29T00:39:55.159Z,1001.97
2017-10-29T00:40:55.164Z,1001.98
2017-10-29T00:41:55.154Z,1002.00
2017-10-29T00:42:55.146Z,1001.94
2017-10-29T00:43:55.142Z,1001.85
2017-10-29T00:44:55.137Z,1001.77
2017-10-29T00:45:55.133Z,1001.82
2017-10-29T00:46:55.155Z,1001.76
2017-10-29T00:47:55.122Z,1001.71
2017-10-29T00:48:55.115Z,1001.72
2017-10-29T00:49:55.110Z,1001.67
2017-10-29T00:50:55.105Z,1001.61
2017-10-29T00:51:55.104Z,1001.54
2017-10-29T00:52:55.095Z,1001.57
2017-10-29T00:53:55.127Z,1001.46
2017-10-29T00:54:55.087Z,1001.43
2017-10-29T00:55:55.082Z,1001.42
2017-10-29T00:56:55.083Z,1001.42
2017-10-29T00:57:55.075Z,1001.34
2017-10-29T00:58:55.071Z,1001.43
2017-10-29T00:59:55.061Z,1001.28
2017-10-29T01:00:55.062Z,1001.34
2017-10-29T01:01:55.054Z,1001.31
2017-10-29T01:02:55.046Z,1001.31
2017-10-29T01:03:55.046Z,1001.29
2017-10-29T01:04:55.649Z,1001.31
2017-10-29T01:05:55.032Z,1001.19
2017-10-29T01:06:55.032Z,1001.21
2017-10-29T01:07:55.038Z,1001.18
2017-10-29T01:08:55.016Z,1001.19
2017-10-29T01:09:55.147Z,1001.17
2017-10-29T01:10:55.064Z,1001.09
2017-10-29T01:11:55.186Z,1001.04
2017-10-29T01:12:55.000Z,1001.05
2017-10-29T01:13:54.992Z,1001.03
2017-10-29T01:14:54.989Z,1001.08
2017-10-29T01:15:54.985Z,1001.11
2017-10-29T01:16:54.979Z,1001.12
2017-10-29T01:17:54.975Z,1000.98
2017-10-29T01:18:54.969Z,1000.89
2017-10-29T01:19:54.962Z,1000.92
2017-10-29T01:20:54.957Z,1000.94
2017-10-29T01:21:54.955Z,1000.95
2017-10-29T01:22:54.952Z,1000.84
2017-10-29T01:23:54.945Z,1000.79
2017-10-29T01:24:54.942Z,1000.82
2017-10-29T01:25:54.935Z,1000.75
2017-10-29T01:26:54.932Z,1000.73
2017-10-29T01:27:54.930Z,1000.72
2017-10-29T01:28:54.916Z,1000.72
2017-10-29T01:29:54.912Z,1000.69
2017-10-29T01:30:54.928Z,1000.70
2017-10-29T01:31:54.907Z,1000.69
2017-10-29T01:32:54.899Z,1000.63
2017-10-29T01:33:54.894Z,1000.62
2017-10-29T01:34:54.889Z,1000.68
2017-10-29T01:35:54.892Z,1000.65
2017-10-29T01:36:54.878Z,1000.61
2017-10-29T01:37:54.875Z,1000.52
2017-10-29T01:38:54.871Z,1000.50
2017-10-29T01:39:54.866Z,1000.48
2017-10-29T01:40:54.860Z,1000.54
2017-10-29T01:41:54.854Z,1000.44
2017-10-29T01:42:54.852Z,1000.41
2017-10-29T01:43:54.844Z,1000.46
2017-10-29T01:44:54.848Z,1000.46
2017-10-29T01:45:54.836Z,1000.30
2017-10-29T01:46:54.847Z,1000.34
2017-10-29T01:47:54.831Z,1000.26
2017-10-29T01:48:54.820Z,1000.29
2017-10-29T01:49:54.820Z,1000.28
2017-10-29T01:50:54.809Z,1000.21
2017-10-29T01:51:54.807Z,1000.13
2017-10-29T01:52:54.800Z,1000.13
2017-10-29T01:53:54.795Z,1000.12
2017-10-29T01:54:54.790Z,1000.15
2017-10-29T01:55:54.792Z,1000.11
2017-10-29T01:56:54.784Z,1000.12
2017-10-29T01:57:54.778Z,1000.14
2017-10-29T01:58:54.774Z,1000.20
2017-10-29T01:59:54.778Z,1000.07
2017-10-29T02:00:54.763Z,1000.08
2017-10-29T02:01:55.010Z,999.97
2017-10-29T02:02:54.757Z,1000.00
2017-10-29T02:03:55.159Z,999.94
2017-10-29T02:04:54.746Z,999.97
2017-10-29T02:05:54.755Z,999.96
2017-10-29T02:06:54.735Z,999.94
2017-10-29T02:07:54.732Z,999.95
2017-10-29T02:08:54.724Z,999.89
2017-10-29T02:09:54.719Z,999.95
2017-10-29T02:10:54.714Z,999.82
2017-10-29T02:11:54.708Z,999.85
2017-10-29T02:12:54.708Z,999.81
2017-10-29T02:13:54.700Z,999.77
2017-10-29T02:14:54.696Z,999.84
2017-10-29T02:15:54.684Z,999.67
2017-10-29T02:16:54.688Z,999.69
2017-10-29T02:17:54.682Z,999.68
2017-10-29T02:18:54.675Z,999.63
2017-10-29T02:19:54.673Z,999.58
2017-10-29T02:20:54.668Z,999.62
2017-10-29T02:21:54.662Z,999.67
2017-10-29T02:22:54.660Z,999.60
2017-10-29T02:23:54.659Z,999.57
2017-10-29T02:24:54.649Z,999.65
2017-10-29T02:25:54.645Z,999.61
2017-10-29T02:26:54.641Z,999.58
2017-10-29T02:27:54.637Z,999.58
2017-10-29T02:28:54.663Z,999.53
2017-10-29T02:29:54.629Z,999.58
2017-10-29T02:30:54.622Z,999.62
2017-10-29T02:31:54.616Z,999.64
2017-10-29T02:32:54.612Z,999.60
2017-10-29T02:33:54.604Z,999.50
2017-10-29T02:34:54.603Z,999.47
2017-10-29T02:35:54.595Z,999.43
2017-10-29T02:36:54.607Z,999.38
2017-10-29T02:37:54.589Z,999.33
2017-10-29T02:38:54.579Z,999.29
2017-10-29T02:39:54.578Z,999.14
2017-10-29T02:40:54.577Z,999.13
2017-10-29T02:41:54.566Z,999.09
2017-10-29T02:42:54.566Z,999.08
2017-10-29T02:43:54.557Z,999.01
2017-10-29T02:44:54.558Z,999.00
2017-10-29T02:45:54.547Z,999.01
2017-10-29T02:46:54.547Z,999.07
2017-10-29T02:47:54.544Z,999.05
2017-10-29T02:48:54.534Z,999.04
2017-10-29T02:49:54.535Z,999.05
2017-10-29T02:50:54.533Z,999.05
2017-10-29T02:51:54.519Z,999.05
2017-10-29T02:52:54.518Z,999.02
2017-10-29T02:53:54.996Z,999.10
2017-10-29T02:54:54.507Z,999.06
2017-10-29T02:55:54.502Z,999.05
2017-10-29T02:56:54.502Z,998.96
2017-10-29T02:57:54.499Z,998.98
2017-10-29T02:58:54.496Z,998.96
2017-10-29T02:59:54.487Z,998.94
2017-10-29T03:00:54.480Z,998.96
2017-10-29T03:01:54.475Z,999.01
2017-10-29T03:02:54.469Z,998.92
2017-10-29T03:03:54.462Z,998.96
2017-10-29T03:04:54.463Z,998.87
2017-10-29T03:05:54.455Z,998.81
2017-10-29T03:06:54.457Z,998.75
2017-10-29T03:07:54.449Z,998.74
2017-10-29T03:08:54.444Z,998.65
2017-10-29T03:09:54.451Z,998.65
2017-10-29T03:10:54.442Z,998.54
2017-10-29T03:11:54.431Z,998.64
2017-10-29T03:12:54.423Z,998.61
2017-10-29T03:13:54.431Z,998.55
2017-10-29T03:14:54.420Z,998.60
2017-10-29T03:15:54.412Z,998.54
2017-10-29T03:16:54.407Z,998.55
2017-10-29T03:17:54.404Z,998.57
2017-10-29T03:18:54.398Z,998.49
2017-10-29T03:19:54.396Z,998.49
2017-10-29T03:20:54.440Z,998.45
2017-10-29T03:21:54.385Z,998.40
2017-10-29T03:22:54.380Z,998.34
2017-10-29T03:23:54.376Z,998.33
2017-10-29T03:24:54.369Z,998.34
2017-10-29T03:25:54.367Z,998.35
2017-10-29T03:26:54.366Z,998.31
2017-10-29T03:27:54.357Z,998.31
2017-10-29T03:28:54.354Z,998.24
2017-10-29T03:29:54.352Z,998.18
2017-10-29T03:30:54.346Z,998.18
2017-10-29T03:31:54.338Z,998.15
2017-10-29T03:32:54.334Z,998.17
2017-10-29T03:33:54.331Z,998.19
2017-10-29T03:34:54.329Z,998.15
2017-10-29T03:35:54.325Z,998.10
2017-10-29T03:36:54.317Z,998.16
2017-10-29T03:37:54.443Z,998.11
2017-10-29T03:38:54.308Z,998.25
2017-10-29T03:39:54.306Z,998.18
2017-10-29T03:40:54.300Z,998.18
2017-10-29T03:41:54.287Z,998.17
2017-10-29T03:42:54.364Z,998.10
2017-10-29T03:43:54.284Z,998.13
2017-10-29T03:44:54.281Z,998.19
2017-10-29T03:45:54.291Z,998.17
2017-10-29T03:46:54.271Z,998.12
2017-10-29T03:47:54.270Z,998.09
2017-10-29T03:48:54.267Z,998.10
2017-10-29T03:49:54.262Z,998.10
2017-10-29T03:50:54.255Z,998.08
2017-10-29T03:51:54.250Z,997.97
2017-10-29T03:52:54.248Z,998.04
2017-10-29T03:53:54.237Z,998.00
2017-10-29T03:54:54.236Z,998.15
2017-10-29T03:55:54.235Z,998.14
2017-10-29T03:56:54.226Z,998.10
2017-10-29T03:57:54.226Z,998.02
2017-10-29T03:58:54.222Z,998.08
2017-10-29T03:59:54.223Z,998.14
2017-10-29T04:00:54.210Z,998.16
2017-10-29T04:01:54.205Z,998.14
2017-10-29T04:02:54.200Z,998.12
2017-10-29T04:03:54.208Z,998.06
2017-10-29T04:04:54.190Z,998.08
2017-10-29T04:05:54.191Z,998.02
2017-10-29T04:06:54.182Z,998.00
2017-10-29T04:07:54.177Z,998.13
2017-10-29T04:08:54.171Z,998.15
2017-10-29T04:09:54.168Z,998.11
2017-10-29T04:10:54.164Z,998.11
2017-10-29T04:11:54.159Z,998.08
2017-10-29T04:12:54.156Z,998.14
2017-10-29T04:13:54.147Z,998.12
2017-10-29T04:14:54.146Z,998.05
2017-10-29T04:15:54.141Z,998.02
2017-10-29T04:16:54.136Z,998.02
2017-10-29T04:17:54.131Z,998.06
2017-10-29T04:18:54.128Z,998.04
2017-10-29T04:19:54.697Z,997.97
2017-10-29T04:20:54.117Z,997.96
2017-10-29T04:21:54.112Z,997.97
2017-10-29T04:22:54.104Z,997.88
2017-10-29T04:23:54.103Z,997.92
2017-10-29T04:24:54.100Z,997.90
2017-10-29T04:25:54.095Z,997.92
2017-10-29T04:26:54.094Z,997.87
2017-10-29T04:27:54.087Z,997.99
2017-10-29T04:28:54.082Z,997.87
2017-10-29T04:29:54.078Z,997.78
2017-10-29T04:30:54.073Z,997.88
2017-10-29T04:31:54.062Z,997.73
2017-10-29T04:32:54.063Z,997.86
2017-10-29T04:33:54.059Z,997.84
2017-10-29T04:34:54.054Z,997.74
2017-10-29T04:35:54.080Z,997.77
2017-10-29T04:36:54.043Z,997.74
2017-10-29T04:37:54.076Z,997.65
2017-10-29T04:38:54.035Z,997.71
2017-10-29T04:39:54.032Z,997.59
2017-10-29T04:40:54.026Z,997.69
2017-10-29T04:41:54.018Z,997.68
2017-10-29T04:42:54.146Z,997.70
2017-10-29T04:43:54.012Z,997.74
2017-10-29T04:44:54.010Z,997.67
2017-10-29T04:45:54.008Z,997.63
2017-10-29T04:46:53.997Z,997.61
2017-10-29T04:47:53.995Z,997.72
2017-10-29T04:48:53.989Z,997.70
2017-10-29T04:49:54.002Z,997.74
2017-10-29T04:50:54.020Z,997.75
2017-10-29T04:51:53.975Z,997.74
2017-10-29T04:52:53.973Z,997.82
2017-10-29T04:53:53.974Z,997.82
2017-10-29T04:54:53.979Z,997.82
2017-10-29T04:55:53.991Z,997.81
2017-10-29T04:56:53.975Z,997.79
2017-10-29T04:57:53.974Z,997.84
2017-10-29T04:58:53.945Z,997.77
2017-10-29T04:59:53.942Z,997.79
2017-10-29T05:00:53.934Z,997.81
2017-10-29T05:01:53.929Z,997.77
2017-10-29T05:02:53.934Z,997.79
2017-10-29T05:03:53.923Z,997.80
2017-10-29T05:04:53.968Z,997.93
2017-10-29T05:05:53.908Z,997.88
2017-10-29T05:06:53.907Z,997.83
2017-10-29T05:07:53.905Z,997.81
2017-10-29T05:08:53.894Z,997.74
2017-10-29T05:09:53.915Z,997.72
2017-10-29T05:10:53.903Z,997.75
2017-10-29T05:11:53.884Z,997.70
2017-10-29T05:12:53.884Z,997.69
2017-10-29T05:13:53.889Z,997.64
2017-10-29T05:14:53.883Z,997.74
2017-10-29T05:15:53.906Z,997.69
2017-10-29T05:16:53.865Z,997.71
2017-10-29T05:17:53.927Z,997.71
2017-10-29T05:18:53.909Z,997.74
2017-10-29T05:19:54.062Z,997.70
2017-10-29T05:20:53.852Z,997.70
2017-10-29T05:21:53.859Z,997.79
2017-10-29T05:22:53.883Z,997.76
2017-10-29T05:23:53.903Z,997.66
2017-10-29T05:24:53.861Z,997.71
2017-10-29T05:25:53.819Z,997.65
2017-10-29T05:26:53.814Z,997.66
2017-10-29T05:27:53.903Z,997.67
2017-10-29T05:28:53.800Z,997.61
2017-10-29T05:29:53.805Z,997.68
2017-10-29T05:30:53.817Z,997.69
2017-10-29T05:31:53.788Z,997.66
2017-10-29T05:32:53.864Z,997.67
2017-10-29T05:33:53.801Z,997.63
2017-10-29T05:34:53.796Z,997.67
2017-10-29T05:35:53.775Z,997.63
2017-10-29T05:36:53.773Z,997.57
2017-10-29T05:37:53.775Z,997.62
2017-10-29T05:38:53.771Z,997.68
2017-10-29T05:39:53.761Z,997.67
2017-10-29T05:40:53.770Z,997.55
2017-10-29T05:41:53.769Z,997.64
2017-10-29T05:42:53.771Z,997.59
2017-10-29T05:43:53.746Z,997.59
2017-10-29T05:44:53.786Z,997.59
2017-10-29T05:45:53.776Z,997.68
2017-10-29T05:46:53.741Z,997.71
2017-10-29T05:47:53.767Z,997.76
2017-10-29T05:48:53.732Z,997.81
2017-10-29T05:49:53.747Z,997.84
2017-10-29T05:50:53.750Z,997.79
2017-10-29T05:51:53.722Z,997.79
2017-10-29T05:52:53.746Z,997.79
2017-10-29T05:53:53.702Z,997.75
2017-10-29T05:54:53.692Z,997.74
2017-10-29T05:55:53.686Z,997.75
2017-10-29T05:56:53.685Z,997.69
2017-10-29T05:57:53.830Z,997.70
2017-10-29T05:58:53.680Z,997.72
2017-10-29T05:59:53.674Z,997.73
2017-10-29T06:00:53.684Z,997.71
2017-10-29T06:01:53.670Z,997.80
2017-10-29T06:02:53.675Z,997.82
2017-10-29T06:03:53.663Z,997.85
2017-10-29T06:04:53.670Z,997.93
2017-10-29T06:05:53.676Z,997.86
2017-10-29T06:06:53.667Z,997.92
2017-10-29T06:07:53.649Z,997.94
2017-10-29T06:08:53.672Z,997.95
2017-10-29T06:09:53.635Z,998.00
2017-10-29T06:10:53.629Z,998.00
2017-10-29T06:11:53.638Z,998.10
2017-10-29T06:12:53.715Z,998.14
2017-10-29T06:13:53.639Z,998.17
2017-10-29T06:14:53.643Z,998.23
2017-10-29T06:15:53.609Z,998.25
2017-10-29T06:16:53.601Z,998.33
2017-10-29T06:17:53.647Z,998.32
2017-10-29T06:18:53.598Z,998.39
2017-10-29T06:19:53.589Z,998.49
2017-10-29T06:20:53.625Z,998.55
2017-10-29T06:21:53.576Z,998.52
2017-10-29T06:22:53.605Z,998.57
2017-10-29T06:23:53.571Z,998.59
2017-10-29T06:24:53.572Z,998.54
2017-10-29T06:25:53.584Z,998.56
2017-10-29T06:26:53.560Z,998.61
2017-10-29T06:27:54.302Z,998.75
2017-10-29T06:28:53.560Z,998.67
2017-10-29T06:29:53.548Z,998.80
2017-10-29T06:30:53.545Z,998.87
2017-10-29T06:31:53.566Z,998.95
2017-10-29T06:32:53.583Z,998.88
2017-10-29T06:33:53.535Z,998.91
2017-10-29T06:34:53.562Z,998.98
2017-10-29T06:35:53.529Z,999.03
2017-10-29T06:36:53.543Z,999.09
2017-10-29T06:37:53.545Z,998.95
2017-10-29T06:38:53.517Z,998.91
2017-10-29T06:39:53.518Z,998.90
2017-10-29T06:40:53.540Z,998.99
2017-10-29T06:41:53.531Z,998.87
2017-10-29T06:42:53.508Z,999.00
2017-10-29T06:43:53.524Z,999.00
2017-10-29T06:44:53.502Z,999.01
2017-10-29T06:45:53.522Z,999.08
2017-10-29T06:46:53.505Z,999.12
2017-10-29T06:47:53.470Z,999.06
2017-10-29T06:48:53.554Z,999.02
2017-10-29T06:49:53.470Z,999.03
2017-10-29T06:50:53.462Z,999.03
2017-10-29T06:51:53.444Z,999.05
2017-10-29T06:52:53.474Z,999.04
2017-10-29T06:53:53.445Z,999.19
2017-10-29T06:54:53.439Z,999.19
2017-10-29T06:55:53.434Z,999.14
2017-10-29T06:56:53.432Z,999.26
2017-10-29T06:57:53.516Z,999.26
2017-10-29T06:58:53.425Z,999.39
2017-10-29T06:59:53.418Z,999.31
2017-10-29T07:00:53.416Z,999.29
2017-10-29T07:01:53.409Z,999.61
2017-10-29T07:02:53.478Z,999.59
2017-10-29T07:03:53.402Z,999.73
2017-10-29T07:04:53.397Z,999.75
2017-10-29T07:05:53.392Z,999.74
2017-10-29T07:06:53.387Z,999.67
2017-10-29T07:07:53.488Z,999.85
2017-10-29T07:08:53.377Z,999.95
2017-10-29T07:09:53.370Z,1000.00
2017-10-29T07:10:53.368Z,999.96
2017-10-29T07:11:53.361Z,1000.12
2017-10-29T07:12:53.560Z,1000.14
2017-10-29T07:13:53.353Z,1000.20
2017-10-29T07:14:53.348Z,1000.21
2017-10-29T07:15:53.345Z,1000.20
2017-10-29T07:16:53.339Z,1000.27
2017-10-29T07:17:53.499Z,1000.28
2017-10-29T07:18:53.328Z,1000.37
2017-10-29T07:19:53.329Z,1000.51
2017-10-29T07:20:53.321Z,1000.34
2017-10-29T07:21:53.315Z,1000.38
2017-10-29T07:22:53.324Z,1000.35
2017-10-29T07:23:53.307Z,1000.44
2017-10-29T07:24:53.300Z,1000.39
2017-10-29T07:25:53.297Z,1000.46
2017-10-29T07:26:53.294Z,1000.41
2017-10-29T07:27:53.320Z,1000.64
2017-10-29T07:28:53.283Z,1000.58
2017-10-29T07:29:53.275Z,1000.62
2017-10-29T07:30:53.278Z,1000.52
2017-10-29T07:31:53.268Z,1000.54
2017-10-29T07:32:53.256Z,1000.46
2017-10-29T07:33:53.258Z,1000.54
2017-10-29T07:34:53.245Z,1000.57
2017-10-29T07:35:53.261Z,1000.55
2017-10-29T07:36:53.259Z,1000.61
2017-10-29T07:37:53.274Z,1000.65
2017-10-29T07:38:53.224Z,1000.67
2017-10-29T07:39:53.227Z,1000.65
2017-10-29T07:40:53.233Z,1000.69
2017-10-29T07:41:53.219Z,1000.65
2017-10-29T07:42:53.213Z,1000.75
2017-10-29T07:43:53.203Z,1000.73
2017-10-29T07:44:53.204Z,1000.76
2017-10-29T07:45:53.198Z,1000.69
2017-10-29T07:46:53.197Z,1000.77
2017-10-29T07:47:53.194Z,1000.86
2017-10-29T07:48:53.182Z,1000.95
2017-10-29T07:49:53.180Z,1000.97
2017-10-29T07:50:53.178Z,1001.12
2017-10-29T07:51:53.168Z,1001.10
2017-10-29T07:52:53.163Z,1001.11
2017-10-29T07:53:53.160Z,1001.15
2017-10-29T07:54:53.158Z,1001.28
2017-10-29T07:55:53.152Z,1001.20
2017-10-29T07:56:53.148Z,1001.21
2017-10-29T07:57:53.141Z,1001.33
2017-10-29T07:58:53.136Z,1001.41
2017-10-29T07:59:53.129Z,1001.37
2017-10-29T08:00:53.130Z,1001.40
2017-10-29T08:01:53.122Z,1001.42
2017-10-29T08:02:53.116Z,1001.49
2017-10-29T08:03:53.114Z,1001.51
2017-10-29T08:04:53.108Z,1001.48
2017-10-29T08:05:53.109Z,1001.46
2017-10-29T08:06:53.100Z,1001.40
2017-10-29T08:07:53.098Z,1001.51
2017-10-29T08:08:53.079Z,1001.62
2017-10-29T08:09:53.084Z,1001.58
2017-10-29T08:10:53.083Z,1001.62
2017-10-29T08:11:53.084Z,1001.72
2017-10-29T08:12:53.071Z,1001.95
2017-10-29T08:13:53.064Z,1001.62
2017-10-29T08:14:53.073Z,1001.79
2017-10-29T08:15:53.067Z,1001.81
2017-10-29T08:16:53.064Z,1001.76
2017-10-29T08:17:53.046Z,1001.80
2017-10-29T08:18:53.036Z,1001.84
2017-10-29T08:19:53.053Z,1001.76
2017-10-29T08:20:53.039Z,1001.92
2017-10-29T08:21:53.030Z,1001.98
2017-10-29T08:22:53.070Z,1001.93
2017-10-29T08:23:53.026Z,1001.93
2017-10-29T08:24:53.018Z,1001.97
2017-10-29T08:25:53.014Z,1002.09
2017-10-29T08:26:53.009Z,1002.03
2017-10-29T08:27:53.057Z,1002.02
2017-10-29T08:28:52.992Z,1002.01
2017-10-29T08:29:52.987Z,1002.06
2017-10-29T08:30:52.983Z,1002.06
2017-10-29T08:31:52.982Z,1002.07
2017-10-29T08:32:53.136Z,1002.00
2017-10-29T08:33:52.974Z,1002.25
2017-10-29T08:34:52.970Z,1002.30
2017-10-29T08:35:52.961Z,1002.29
2017-10-29T08:36:52.957Z,1002.27
2017-10-29T08:37:52.950Z,1002.33
2017-10-29T08:38:52.947Z,1002.30
2017-10-29T08:39:52.943Z,1002.37
2017-10-29T08:40:53.006Z,1002.35
2017-10-29T08:41:52.936Z,1002.40
2017-10-29T08:42:52.934Z,1002.45
2017-10-29T08:43:52.926Z,1002.47
2017-10-29T08:44:52.930Z,1002.55
2017-10-29T08:45:52.917Z,1002.47
2017-10-29T08:46:52.915Z,1002.52
2017-10-29T08:47:52.906Z,1002.54
2017-10-29T08:48:52.901Z,1002.64
2017-10-29T08:49:52.898Z,1002.55
2017-10-29T08:50:52.892Z,1002.63
2017-10-29T08:51:52.892Z,1002.57
2017-10-29T08:52:52.888Z,1002.57
2017-10-29T08:53:52.883Z,1002.74
2017-10-29T08:54:52.878Z,1002.51
2017-10-29T08:55:52.873Z,1002.73
2017-10-29T08:56:52.868Z,1002.69
2017-10-29T08:57:52.872Z,1002.61
2017-10-29T08:58:52.861Z,1002.86
2017-10-29T08:59:52.853Z,1002.78
2017-10-29T09:00:52.848Z,1002.81
2017-10-29T09:01:52.841Z,1002.71
2017-10-29T09:02:52.840Z,1002.87
2017-10-29T09:03:52.839Z,1002.82
2017-10-29T09:04:52.834Z,1002.84
2017-10-29T09:05:52.818Z,1002.77
2017-10-29T09:06:52.815Z,1002.78
2017-10-29T09:07:52.817Z,1002.69
2017-10-29T09:08:52.816Z,1002.83
2017-10-29T09:09:52.804Z,1002.73
2017-10-29T09:10:52.800Z,1002.72
2017-10-29T09:11:52.813Z,1002.84
2017-10-29T09:12:52.792Z,1002.82
2017-10-29T09:13:52.790Z,1002.90
2017-10-29T09:14:52.786Z,1002.79
2017-10-29T09:15:52.806Z,1002.88
2017-10-29T09:16:52.794Z,1002.78
2017-10-29T09:17:52.773Z,1002.70
2017-10-29T09:18:52.767Z,1002.88
2017-10-29T09:19:52.763Z,1002.80
2017-10-29T09:20:52.758Z,1002.88
2017-10-29T09:21:52.746Z,1002.84
2017-10-29T09:22:52.758Z,1002.84
2017-10-29T09:23:52.750Z,1002.85
2017-10-29T09:24:53.550Z,1002.84
2017-10-29T09:25:52.728Z,1002.97
2017-10-29T09:26:52.737Z,1002.98
2017-10-29T09:27:52.738Z,1003.01
2017-10-29T09:28:52.721Z,1003.05
2017-10-29T09:29:52.710Z,1003.08
2017-10-29T09:30:52.738Z,1003.17
2017-10-29T09:31:52.709Z,1003.16
2017-10-29T09:32:52.696Z,1003.14
2017-10-29T09:33:52.706Z,1003.17
2017-10-29T09:34:52.686Z,1003.21
2017-10-29T09:35:52.685Z,1003.27
2017-10-29T09:36:52.683Z,1003.40
2017-10-29T09:37:52.678Z,1003.28
2017-10-29T09:38:52.670Z,1003.31
2017-10-29T09:39:52.662Z,1003.41
2017-10-29T09:40:52.661Z,1003.44
2017-10-29T09:41:52.653Z,1003.49
2017-10-29T09:42:52.656Z,1003.57
2017-10-29T09:43:52.645Z,1003.50
2017-10-29T09:44:52.653Z,1003.59
2017-10-29T09:45:52.636Z,1003.62
2017-10-29T09:46:52.646Z,1003.56
2017-10-29T09:47:52.626Z,1003.59
2017-10-29T09:48:52.622Z,1003.64
2017-10-29T09:49:52.620Z,1003.69
2017-10-29T09:50:52.613Z,1003.65
2017-10-29T09:51:52.702Z,1003.70
2017-10-29T09:52:52.608Z,1003.88
2017-10-29T09:53:52.604Z,1003.87
2017-10-29T09:54:52.594Z,1003.88
2017-10-29T09:55:52.609Z,1003.91
2017-10-29T09:56:52.589Z,1003.86
2017-10-29T09:57:52.583Z,1003.90
2017-10-29T09:58:52.575Z,1003.89
2017-10-29T09:59:52.571Z,1003.98
2017-10-29T10:00:52.631Z,1003.98
2017-10-29T10:01:52.567Z,1003.99
2017-10-29T10:02:52.557Z,1004.02
2017-10-29T10:03:52.558Z,1004.02
2017-10-29T10:04:52.544Z,1004.09
2017-10-29T10:05:52.546Z,1004.16
2017-10-29T10:06:52.542Z,1004.11
2017-10-29T10:07:52.546Z,1004.13
2017-10-29T10:08:52.534Z,1004.19
2017-10-29T10:09:52.534Z,1004.21
2017-10-29T10:10:52.527Z,1004.26
2017-10-29T10:11:52.521Z,1004.30
2017-10-29T10:12:52.525Z,1004.27
2017-10-29T10:13:52.541Z,1004.36
2017-10-29T10:14:52.509Z,1004.30
2017-10-29T10:15:52.504Z,1004.22
2017-10-29T10:16:52.499Z,1004.27
2017-10-29T10:17:52.497Z,1004.31
2017-10-29T10:18:52.495Z,1004.43
2017-10-29T10:19:52.497Z,1004.49
2017-10-29T10:20:52.484Z,1004.39
2017-10-29T10:21:52.488Z,1004.55
2017-10-29T10:22:52.479Z,1004.34
2017-10-29T10:23:52.471Z,1004.37
2017-10-29T10:24:52.472Z,1004.42
2017-10-29T10:25:52.466Z,1004.35
2017-10-29T10:26:52.469Z,1004.42
2017-10-29T10:27:52.458Z,1004.48
2017-10-29T10:28:52.446Z,1004.49
2017-10-29T10:29:52.444Z,1004.48
2017-10-29T10:30:52.438Z,1004.54
2017-10-29T10:31:52.436Z,1004.61
2017-10-29T10:32:52.426Z,1004.62
2017-10-29T10:33:52.422Z,1004.75
2017-10-29T10:34:52.425Z,1004.63
2017-10-29T10:35:52.437Z,1004.61
2017-10-29T10:36:52.412Z,1004.67
2017-10-29T10:37:52.411Z,1004.77
2017-10-29T10:38:52.405Z,1004.62
2017-10-29T10:39:52.400Z,1004.69
2017-10-29T10:40:52.396Z,1004.66
2017-10-29T10:41:52.390Z,1004.57
2017-10-29T10:42:52.384Z,1004.63
2017-10-29T10:43:52.386Z,1004.60
2017-10-29T10:44:52.375Z,1004.70
2017-10-29T10:45:52.377Z,1004.72
2017-10-29T10:46:52.370Z,1004.79
2017-10-29T10:47:52.368Z,1004.61
2017-10-29T10:48:59.515Z,1004.74
2017-10-29T10:50:45.258Z,1004.70
2017-10-29T10:51:45.240Z,1004.76
2017-10-29T10:53:38.113Z,1004.78
2017-10-29T10:54:38.094Z,1004.70
2017-10-29T10:56:30.958Z,1004.63
2017-10-29T10:57:30.949Z,1004.60
2017-10-29T10:59:23.836Z,1004.62
2017-10-29T11:00:23.807Z,1004.61
2017-10-29T11:02:16.671Z,1004.69
2017-10-29T11:03:16.660Z,1004.60
2017-10-29T11:05:09.549Z,1004.77
2017-10-29T11:06:09.519Z,1004.67
2017-10-29T11:08:02.398Z,1004.65
2017-10-29T11:09:02.381Z,1004.63
2017-10-29T11:10:55.235Z,1004.59
2017-10-29T11:11:55.231Z,1004.69
2017-10-29T11:13:48.105Z,1004.89
2017-10-29T11:14:48.148Z,1004.84
2017-10-29T11:15:48.080Z,1004.80
2017-10-29T11:16:48.075Z,1004.87
2017-10-29T11:17:48.069Z,1004.79
2017-10-29T11:18:48.065Z,1004.87
2017-10-29T11:19:48.063Z,1004.87
2017-10-29T11:20:48.059Z,1004.77
2017-10-29T11:21:48.054Z,1004.89
2017-10-29T11:22:48.052Z,1004.90
2017-10-29T11:23:48.044Z,1004.94
2017-10-29T11:24:48.047Z,1005.04
2017-10-29T11:25:48.067Z,1005.04
2017-10-29T11:26:48.032Z,1005.13
2017-10-29T11:27:48.030Z,1005.08
2017-10-29T11:28:48.030Z,1005.13
2017-10-29T11:29:48.024Z,1005.11
2017-10-29T11:30:48.010Z,1005.24
2017-10-29T11:31:48.014Z,1005.22
2017-10-29T11:32:48.011Z,1005.11
2017-10-29T11:33:47.997Z,1005.15
2017-10-29T11:34:47.997Z,1005.18
2017-10-29T11:35:47.993Z,1005.20
2017-10-29T11:36:47.987Z,1005.21
2017-10-29T11:37:47.984Z,1005.23
2017-10-29T11:38:47.993Z,1005.23
2017-10-29T11:39:47.973Z,1005.27
2017-10-29T11:40:47.976Z,1005.20
2017-10-29T11:41:47.969Z,1005.17
2017-10-29T11:42:47.964Z,1005.14
2017-10-29T11:43:47.957Z,1005.30
2017-10-29T11:44:47.965Z,1005.24
2017-10-29T11:45:47.951Z,1005.38
2017-10-29T11:46:47.946Z,1005.30
2017-10-29T11:47:47.944Z,1005.25
2017-10-29T11:48:47.935Z,1005.25
2017-10-29T11:49:47.935Z,1005.28
2017-10-29T11:50:47.931Z,1005.39
2017-10-29T11:51:47.920Z,1005.52
2017-10-29T11:52:47.920Z,1005.48
2017-10-29T11:53:47.909Z,1005.55
2017-10-29T11:54:48.593Z,1005.45
2017-10-29T11:55:47.903Z,1005.54
2017-10-29T11:56:47.898Z,1005.57
2017-10-29T11:57:47.902Z,1005.50
2017-10-29T11:58:47.889Z,1005.50
2017-10-29T11:59:47.903Z,1005.51
2017-10-29T12:00:47.884Z,1005.51
2017-10-29T12:01:47.882Z,1005.47
2017-10-29T12:02:47.876Z,1005.69
2017-10-29T12:03:47.870Z,1005.73
2017-10-29T12:04:47.871Z,1005.59
2017-10-29T12:05:47.861Z,1005.69
2017-10-29T12:06:47.857Z,1005.70
2017-10-29T12:07:47.855Z,1005.62
2017-10-29T12:08:47.846Z,1005.63
2017-10-29T12:09:47.841Z,1005.70
2017-10-29T12:10:47.839Z,1005.60
2017-10-29T12:11:47.833Z,1005.61
2017-10-29T12:12:47.828Z,1005.57
2017-10-29T12:13:47.827Z,1005.63
2017-10-29T12:14:47.820Z,1005.56
2017-10-29T12:15:47.858Z,1005.60
2017-10-29T12:16:47.812Z,1005.64
2017-10-29T12:17:47.809Z,1005.58
2017-10-29T12:18:47.802Z,1005.57
2017-10-29T12:19:47.800Z,1005.62
2017-10-29T12:20:47.799Z,1005.64
2017-10-29T12:21:47.791Z,1005.66
2017-10-29T12:22:47.785Z,1005.68
2017-10-29T12:23:47.797Z,1005.64